sensor_id;sensor_type;location;lat;lon;timestamp;pressure;altitude;pressure_sealevel;temperature;humidity
72409;BME280;60402;48.082;11.628;2023-04-07T00:01:25;95342.59;;;2.79;73.02
72409;BME280;60402;48.082;11.628;2023-04-07T00:04:11;95326.25;;;2.70;72.95
72409;BME280;60402;48.082;11.628;2023-04-07T00:06:57;95325.47;;;2.59;73.84
72409;BME280;60402;48.082;11.628;2023-04-07T00:09:43;95341.41;;;2.69;73.36
72409;BME280;60402;48.082;11.628;2023-04-07T00:12:28;95341.38;;;2.55;74.64
72409;BME280;60402;48.082;11.628;2023-04-07T00:15:14;95313.47;;;2.37;75.27
72409;BME280;60402;48.082;11.628;2023-04-07T00:18:00;95344.56;;;2.46;77.09
72409;BME280;60402;48.082;11.628;2023-04-07T00:20:45;95314.25;;;2.34;76.48
72409;BME280;60402;48.082;11.628;2023-04-07T00:23:31;95284.72;;;2.12;76.95
72409;BME280;60402;48.082;11.628;2023-04-07T00:26:17;95321.81;;;2.34;77.00
72409;BME280;60402;48.082;11.628;2023-04-07T00:29:03;95284.34;;;2.17;77.03
72409;BME280;60402;48.082;11.628;2023-04-07T00:31:48;95308.69;;;2.38;75.92
72409;BME280;60402;48.082;11.628;2023-04-07T00:34:34;95338.59;;;2.62;74.50
72409;BME280;60402;48.082;11.628;2023-04-07T00:37:19;95297.94;;;2.36;74.93
72409;BME280;60402;48.082;11.628;2023-04-07T00:40:06;95340.19;;;2.67;73.87
72409;BME280;60402;48.082;11.628;2023-04-07T00:42:51;95314.72;;;2.68;73.12
72409;BME280;60402;48.082;11.628;2023-04-07T00:45:37;95313.13;;;2.78;72.46
72409;BME280;60402;48.082;11.628;2023-04-07T00:48:23;95308.72;;;2.84;72.10
72409;BME280;60402;48.082;11.628;2023-04-07T00:51:09;95321.47;;;2.99;71.48
72409;BME280;60402;48.082;11.628;2023-04-07T00:53:55;95319.88;;;3.13;71.69
72409;BME280;60402;48.082;11.628;2023-04-07T00:56:40;95329.03;;;3.10;71.40
72409;BME280;60402;48.082;11.628;2023-04-07T00:59:26;95323.06;;;3.15;71.20
72409;BME280;60402;48.082;11.628;2023-04-07T01:02:20;95320.66;;;3.17;71.22
72409;BME280;60402;48.082;11.628;2023-04-07T01:05:38;95311.88;;;3.15;71.06
72409;BME280;60402;48.082;11.628;2023-04-07T01:11:31;95308.69;;;3.23;71.24
72409;BME280;60402;48.082;11.628;2023-04-07T01:14:22;95270.44;;;3.06;70.05
72409;BME280;60402;48.082;11.628;2023-04-07T01:17:09;95305.91;;;3.27;70.31
72409;BME280;60402;48.082;11.628;2023-04-07T01:20:01;95301.50;;;3.22;70.64
72409;BME280;60402;48.082;11.628;2023-04-07T01:22:54;95305.91;;;3.27;70.65
72409;BME280;60402;48.082;11.628;2023-04-07T01:26:16;95299.91;;;3.32;70.67
72409;BME280;60402;48.082;11.628;2023-04-07T01:31:53;95301.91;;;3.28;70.58
72409;BME280;60402;48.082;11.628;2023-04-07T01:34:40;95299.09;;;3.35;70.12
72409;BME280;60402;48.082;11.628;2023-04-07T01:37:27;95301.09;;;3.31;70.97
72409;BME280;60402;48.082;11.628;2023-04-07T01:40:14;95266.44;;;3.07;71.14
72409;BME280;60402;48.082;11.628;2023-04-07T01:43:01;95290.72;;;3.31;70.86
72409;BME280;60402;48.082;11.628;2023-04-07T01:45:47;95301.91;;;3.35;71.25
72409;BME280;60402;48.082;11.628;2023-04-07T01:48:34;95282.34;;;3.28;72.05
72409;BME280;60402;48.082;11.628;2023-04-07T01:51:21;95277.97;;;3.34;72.47
72409;BME280;60402;48.082;11.628;2023-04-07T01:54:08;95299.09;;;3.28;73.00
72409;BME280;60402;48.082;11.628;2023-04-07T01:56:54;95277.59;;;3.25;72.67
72409;BME280;60402;48.082;11.628;2023-04-07T01:59:40;95262.03;;;3.20;73.06
72409;BME280;60402;48.082;11.628;2023-04-07T02:02:27;95281.13;;;3.36;73.85
72409;BME280;60402;48.082;11.628;2023-04-07T02:05:17;95289.09;;;3.38;74.10
72409;BME280;60402;48.082;11.628;2023-04-07T02:08:07;95272.78;;;3.25;75.20
72409;BME280;60402;48.082;11.628;2023-04-07T02:10:54;95290.34;;;3.29;74.85
72409;BME280;60402;48.082;11.628;2023-04-07T02:13:41;95285.13;;;3.28;75.66
72409;BME280;60402;48.082;11.628;2023-04-07T02:16:30;95281.16;;;3.25;76.06
72409;BME280;60402;48.082;11.628;2023-04-07T02:19:16;95285.13;;;3.28;76.55
72409;BME280;60402;48.082;11.628;2023-04-07T02:22:05;95253.66;;;3.10;77.29
72409;BME280;60402;48.082;11.628;2023-04-07T02:24:51;95269.22;;;3.21;78.61
72409;BME280;60402;48.082;11.628;2023-04-07T02:27:37;95267.97;;;3.44;78.73
72409;BME280;60402;48.082;11.628;2023-04-07T02:30:23;95259.19;;;3.42;80.25
72409;BME280;60402;48.082;11.628;2023-04-07T02:33:08;95264.75;;;3.49;81.62
72409;BME280;60402;48.082;11.628;2023-04-07T02:35:54;95252.69;;;3.66;81.46
72409;BME280;60402;48.082;11.628;2023-04-07T02:38:40;95267.41;;;3.81;81.46
72409;BME280;60402;48.082;11.628;2023-04-07T02:41:25;95244.72;;;3.72;83.40
72409;BME280;60402;48.082;11.628;2023-04-07T02:44:11;95273.72;;;3.99;83.78
72409;BME280;60402;48.082;11.628;2023-04-07T02:46:57;95264.94;;;3.97;82.79
72409;BME280;60402;48.082;11.628;2023-04-07T02:49:43;95258.16;;;3.95;83.79
72409;BME280;60402;48.082;11.628;2023-04-07T02:52:28;95288.81;;;4.20;84.71
72409;BME280;60402;48.082;11.628;2023-04-07T02:55:14;95293.56;;;4.23;85.67
72409;BME280;60402;48.082;11.628;2023-04-07T02:58:00;95294.00;;;4.18;85.93
72409;BME280;60402;48.082;11.628;2023-04-07T03:00:47;95266.09;;;4.03;86.15
72409;BME280;60402;48.082;11.628;2023-04-07T03:03:33;95298.34;;;4.29;86.30
72409;BME280;60402;48.082;11.628;2023-04-07T03:06:18;95271.59;;;4.28;86.79
72409;BME280;60402;48.082;11.628;2023-04-07T03:09:04;95269.63;;;4.18;87.35
72409;BME280;60402;48.082;11.628;2023-04-07T03:11:50;95271.19;;;4.23;88.02
72409;BME280;60402;48.082;11.628;2023-04-07T03:14:36;95272.41;;;4.22;88.73
72409;BME280;60402;48.082;11.628;2023-04-07T03:17:21;95276.41;;;4.24;89.59
72409;BME280;60402;48.082;11.628;2023-04-07T03:20:07;95256.13;;;4.06;89.87
72409;BME280;60402;48.082;11.628;2023-04-07T03:22:53;95275.59;;;4.24;90.18
72409;BME280;60402;48.082;11.628;2023-04-07T03:25:39;95259.66;;;4.14;90.61
72409;BME280;60402;48.082;11.628;2023-04-07T03:28:25;95270.03;;;4.20;91.01
72409;BME280;60402;48.082;11.628;2023-04-07T03:31:11;95269.25;;;4.13;90.78
72409;BME280;60402;48.082;11.628;2023-04-07T03:33:56;95256.13;;;4.06;91.12
72409;BME280;60402;48.082;11.628;2023-04-07T03:36:42;95273.25;;;4.15;92.79
72409;BME280;60402;48.082;11.628;2023-04-07T03:39:27;95266.03;;;4.18;92.78
72409;BME280;60402;48.082;11.628;2023-04-07T03:42:13;95256.84;;;4.17;92.53
72409;BME280;60402;48.082;11.628;2023-04-07T03:44:59;95271.22;;;4.19;93.57
72409;BME280;60402;48.082;11.628;2023-04-07T03:47:45;95238.16;;;4.03;93.74
72409;BME280;60402;48.082;11.628;2023-04-07T03:50:30;95265.63;;;4.19;94.33
72409;BME280;60402;48.082;11.628;2023-04-07T03:53:16;95253.34;;;4.02;95.54
72409;BME280;60402;48.082;11.628;2023-04-07T03:56:03;95262.94;;;4.05;96.47
72409;BME280;60402;48.082;11.628;2023-04-07T03:58:49;95245.78;;;3.96;96.67
72409;BME280;60402;48.082;11.628;2023-04-07T04:01:35;95242.97;;;3.99;95.81
72409;BME280;60402;48.082;11.628;2023-04-07T04:04:21;95227.03;;;3.96;96.41
72409;BME280;60402;48.082;11.628;2023-04-07T04:07:08;95258.06;;;4.16;96.46
72409;BME280;60402;48.082;11.628;2023-04-07T04:09:54;95255.69;;;4.11;96.60
72409;BME280;60402;48.082;11.628;2023-04-07T04:12:40;95249.69;;;4.13;96.61
72409;BME280;60402;48.082;11.628;2023-04-07T04:15:26;95242.88;;;4.14;96.05
72409;BME280;60402;48.082;11.628;2023-04-07T04:18:12;95233.31;;;4.11;95.73
72409;BME280;60402;48.082;11.628;2023-04-07T04:20:57;95255.28;;;4.09;96.54
72409;BME280;60402;48.082;11.628;2023-04-07T04:23:43;95256.09;;;4.09;96.50
72409;BME280;60402;48.082;11.628;2023-04-07T04:26:29;95204.81;;;3.64;97.66
72409;BME280;60402;48.082;11.628;2023-04-07T04:29:14;95248.97;;;3.94;97.68
72409;BME280;60402;48.082;11.628;2023-04-07T04:32:00;95248.97;;;3.98;97.19
72409;BME280;60402;48.082;11.628;2023-04-07T04:34:46;95217.16;;;3.74;98.28
72409;BME280;60402;48.082;11.628;2023-04-07T04:37:31;95225.09;;;3.82;96.96
72409;BME280;60402;48.082;11.628;2023-04-07T04:40:17;95208.41;;;3.68;96.74
72409;BME280;60402;48.082;11.628;2023-04-07T04:43:03;95245.00;;;3.92;97.51
72409;BME280;60402;48.082;11.628;2023-04-07T04:45:51;95248.97;;;3.98;97.98
72409;BME280;60402;48.082;11.628;2023-04-07T04:48:37;95254.94;;;4.00;97.69
72409;BME280;60402;48.082;11.628;2023-04-07T04:51:23;95215.91;;;3.82;97.38
72409;BME280;60402;48.082;11.628;2023-04-07T04:54:08;95254.19;;;3.92;97.20
72409;BME280;60402;48.082;11.628;2023-04-07T04:56:54;95235.09;;;3.76;98.07
72409;BME280;60402;48.082;11.628;2023-04-07T04:59:41;95235.50;;;3.78;98.56
72409;BME280;60402;48.082;11.628;2023-04-07T05:02:27;95246.25;;;3.76;98.45
72409;BME280;60402;48.082;11.628;2023-04-07T05:05:12;95242.59;;;3.94;97.47
72409;BME280;60402;48.082;11.628;2023-04-07T05:07:58;95237.78;;;3.94;97.18
72409;BME280;60402;48.082;11.628;2023-04-07T05:10:45;95220.63;;;3.96;96.59
72409;BME280;60402;48.082;11.628;2023-04-07T05:13:31;95206.38;;;3.72;97.34
72409;BME280;60402;48.082;11.628;2023-04-07T05:16:17;95221.88;;;3.88;97.57
72409;BME280;60402;48.082;11.628;2023-04-07T05:19:02;95199.94;;;3.79;97.28
72409;BME280;60402;48.082;11.628;2023-04-07T05:21:48;95236.56;;;3.99;97.58
72409;BME280;60402;48.082;11.628;2023-04-07T05:24:33;95239.44;;;3.88;99.24
72409;BME280;60402;48.082;11.628;2023-04-07T05:27:19;95229.09;;;3.81;99.98
72409;BME280;60402;48.082;11.628;2023-04-07T05:30:05;95227.09;;;3.78;100.00
72409;BME280;60402;48.082;11.628;2023-04-07T05:32:52;95235.91;;;3.77;100.00
72409;BME280;60402;48.082;11.628;2023-04-07T05:35:38;95236.34;;;3.61;100.00
72409;BME280;60402;48.082;11.628;2023-04-07T05:38:24;95211.69;;;3.45;100.00
72409;BME280;60402;48.082;11.628;2023-04-07T05:41:09;95210.88;;;3.45;100.00
72409;BME280;60402;48.082;11.628;2023-04-07T05:43:55;95214.38;;;3.67;100.00
72409;BME280;60402;48.082;11.628;2023-04-07T05:46:40;95187.31;;;3.49;100.00
72409;BME280;60402;48.082;11.628;2023-04-07T05:49:26;95238.66;;;3.80;100.00
72409;BME280;60402;48.082;11.628;2023-04-07T05:52:13;95236.22;;;3.90;100.00
72409;BME280;60402;48.082;11.628;2023-04-07T05:54:59;95238.59;;;3.95;100.00
72409;BME280;60402;48.082;11.628;2023-04-07T05:57:44;95230.59;;;3.97;100.00
72409;BME280;60402;48.082;11.628;2023-04-07T06:00:30;95221.81;;;3.95;100.00
72409;BME280;60402;48.082;11.628;2023-04-07T06:03:16;95224.25;;;3.89;100.00
72409;BME280;60402;48.082;11.628;2023-04-07T06:06:01;95212.72;;;3.76;100.00
72409;BME280;60402;48.082;11.628;2023-04-07T06:08:47;95216.19;;;4.02;100.00
72409;BME280;60402;48.082;11.628;2023-04-07T06:11:33;95190.69;;;3.93;100.00
72409;BME280;60402;48.082;11.628;2023-04-07T06:14:18;95221.44;;;3.96;100.00
72409;BME280;60402;48.082;11.628;2023-04-07T06:17:05;95207.44;;;3.96;100.00
72409;BME280;60402;48.082;11.628;2023-04-07T06:19:50;95225.00;;;4.00;100.00
72409;BME280;60402;48.082;11.628;2023-04-07T06:22:37;95214.22;;;3.99;100.00
72409;BME280;60402;48.082;11.628;2023-04-07T06:25:23;95197.84;;;3.97;100.00
72409;BME280;60402;48.082;11.628;2023-04-07T06:28:09;95211.66;;;4.26;100.00
72409;BME280;60402;48.082;11.628;2023-04-07T06:30:55;95187.72;;;4.18;100.00
72409;BME280;60402;48.082;11.628;2023-04-07T06:33:40;95206.00;;;4.33;99.89
72409;BME280;60402;48.082;11.628;2023-04-07T06:36:26;95174.91;;;4.24;100.00
72409;BME280;60402;48.082;11.628;2023-04-07T06:39:13;95168.03;;;4.32;100.00
72409;BME280;60402;48.082;11.628;2023-04-07T06:41:59;95203.47;;;4.53;99.22
72409;BME280;60402;48.082;11.628;2023-04-07T06:44:46;95175.19;;;4.36;99.72
72409;BME280;60402;48.082;11.628;2023-04-07T06:47:31;95197.75;;;4.67;99.30
72409;BME280;60402;48.082;11.628;2023-04-07T06:50:17;95179.84;;;4.57;98.19
72409;BME280;60402;48.082;11.628;2023-04-07T06:53:05;95195.28;;;4.73;98.07
72409;BME280;60402;48.082;11.628;2023-04-07T06:55:51;95203.38;;;4.64;98.75
72409;BME280;60402;48.082;11.628;2023-04-07T06:58:37;95163.97;;;4.44;99.07
72409;BME280;60402;48.082;11.628;2023-04-07T07:01:23;95181.41;;;4.62;98.35
72409;BME280;60402;48.082;11.628;2023-04-07T07:04:08;95197.19;;;4.83;98.76
72409;BME280;60402;48.082;11.628;2023-04-07T07:06:54;95204.34;;;4.87;97.38
72409;BME280;60402;48.082;11.628;2023-04-07T07:09:40;95199.28;;;4.75;97.78
72409;BME280;60402;48.082;11.628;2023-04-07T07:12:26;95124.47;;;4.34;97.73
72409;BME280;60402;48.082;11.628;2023-04-07T07:15:11;95180.97;;;5.05;97.01
72409;BME280;60402;48.082;11.628;2023-04-07T07:17:57;95189.19;;;5.23;96.02
72409;BME280;60402;48.082;11.628;2023-04-07T07:20:43;95191.47;;;5.31;95.21
72409;BME280;60402;48.082;11.628;2023-04-07T07:23:28;95189.34;;;5.46;94.73
72409;BME280;60402;48.082;11.628;2023-04-07T07:26:14;95182.78;;;5.87;94.22
72409;BME280;60402;48.082;11.628;2023-04-07T07:29:00;95184.31;;;5.95;92.19
72409;BME280;60402;48.082;11.628;2023-04-07T07:31:46;95191.75;;;6.36;91.28
72409;BME280;60402;48.082;11.628;2023-04-07T07:34:32;95201.00;;;6.60;90.00
72409;BME280;60402;48.082;11.628;2023-04-07T07:37:17;95194.66;;;6.56;88.26
72409;BME280;60402;48.082;11.628;2023-04-07T07:40:03;95178.25;;;6.54;88.20
72409;BME280;60402;48.082;11.628;2023-04-07T07:42:49;95181.50;;;6.26;88.85
72409;BME280;60402;48.082;11.628;2023-04-07T07:45:35;95186.28;;;6.76;88.44
72409;BME280;60402;48.082;11.628;2023-04-07T07:48:20;95180.97;;;6.81;87.04
72409;BME280;60402;48.082;11.628;2023-04-07T07:51:06;95183.38;;;7.06;86.60
72409;BME280;60402;48.082;11.628;2023-04-07T07:53:51;95196.50;;;7.33;85.27
72409;BME280;60402;48.082;11.628;2023-04-07T07:56:37;95159.66;;;7.07;85.23
72409;BME280;60402;48.082;11.628;2023-04-07T07:59:23;95205.94;;;7.23;85.34
72409;BME280;60402;48.082;11.628;2023-04-07T08:02:09;95189.47;;;7.01;84.86
72409;BME280;60402;48.082;11.628;2023-04-07T08:04:56;95204.84;;;7.16;85.10
72409;BME280;60402;48.082;11.628;2023-04-07T08:07:41;95184.28;;;7.00;84.75
72409;BME280;60402;48.082;11.628;2023-04-07T08:10:28;95201.56;;;7.22;85.48
72409;BME280;60402;48.082;11.628;2023-04-07T08:13:13;95200.09;;;7.13;83.99
72409;BME280;60402;48.082;11.628;2023-04-07T08:15:59;95173.03;;;6.76;84.89
72409;BME280;60402;48.082;11.628;2023-04-07T08:18:45;95175.44;;;7.01;84.97
72409;BME280;60402;48.082;11.628;2023-04-07T08:21:31;95186.41;;;7.15;82.83
72409;BME280;60402;48.082;11.628;2023-04-07T08:24:16;95194.63;;;7.26;82.85
72409;BME280;60402;48.082;11.628;2023-04-07T08:27:02;95201.22;;;7.39;81.61
72409;BME280;60402;48.082;11.628;2023-04-07T08:29:58;95161.16;;;6.92;80.69
72409;BME280;60402;48.082;11.628;2023-04-07T08:32:44;95186.59;;;7.05;81.08
72409;BME280;60402;48.082;11.628;2023-04-07T08:35:30;95164.31;;;7.37;81.69
72409;BME280;60402;48.082;11.628;2023-04-07T08:38:15;95189.69;;;7.93;80.62
72409;BME280;60402;48.082;11.628;2023-04-07T08:41:05;95182.25;;;8.39;78.52
72409;BME280;60402;48.082;11.628;2023-04-07T08:43:52;95164.84;;;8.44;77.71
72409;BME280;60402;48.082;11.628;2023-04-07T08:46:38;95162.53;;;7.67;78.14
72409;BME280;60402;48.082;11.628;2023-04-07T08:49:26;95177.44;;;7.84;79.08
72409;BME280;60402;48.082;11.628;2023-04-07T08:52:14;95185.03;;;8.03;77.99
72409;BME280;60402;48.082;11.628;2023-04-07T08:55:02;95154.34;;;8.29;77.24
72409;BME280;60402;48.082;11.628;2023-04-07T08:57:48;95188.38;;;8.87;76.65
72409;BME280;60402;48.082;11.628;2023-04-07T09:00:35;95194.56;;;8.45;74.91
72409;BME280;60402;48.082;11.628;2023-04-07T09:03:21;95189.75;;;8.46;75.20
72409;BME280;60402;48.082;11.628;2023-04-07T09:06:09;95189.38;;;8.08;75.88
72409;BME280;60402;48.082;11.628;2023-04-07T09:08:58;95153.88;;;7.94;77.44
72409;BME280;60402;48.082;11.628;2023-04-07T09:11:44;95187.56;;;9.03;76.01
72409;BME280;60402;48.082;11.628;2023-04-07T09:14:29;95181.75;;;9.55;73.92
72409;BME280;60402;48.082;11.628;2023-04-07T09:17:15;95159.19;;;9.55;71.79
72409;BME280;60402;48.082;11.628;2023-04-07T09:20:02;95178.22;;;9.51;65.22
72409;BME280;60402;48.082;11.628;2023-04-07T09:22:48;95166.34;;;8.82;67.30
72409;BME280;60402;48.082;11.628;2023-04-07T09:25:34;95156.22;;;9.46;66.07
72409;BME280;60402;48.082;11.628;2023-04-07T09:28:20;95138.22;;;9.40;63.31
72409;BME280;60402;48.082;11.628;2023-04-07T09:31:07;95170.31;;;9.88;62.23
72409;BME280;60402;48.082;11.628;2023-04-07T09:33:53;95168.19;;;10.72;60.35
72409;BME280;60402;48.082;11.628;2023-04-07T09:36:40;95160.13;;;12.00;58.65
72409;BME280;60402;48.082;11.628;2023-04-07T09:39:27;95137.53;;;12.40;54.80
72409;BME280;60402;48.082;11.628;2023-04-07T09:42:12;95153.25;;;10.84;57.56
72409;BME280;60402;48.082;11.628;2023-04-07T09:44:59;95130.94;;;11.34;55.11
72409;BME280;60402;48.082;11.628;2023-04-07T09:47:45;95164.41;;;11.83;55.45
72409;BME280;60402;48.082;11.628;2023-04-07T09:50:40;95162.00;;;11.59;56.68
72409;BME280;60402;48.082;11.628;2023-04-07T09:53:47;95153.94;;;11.92;54.65
72409;BME280;60402;48.082;11.628;2023-04-07T09:56:33;95144.94;;;11.15;55.87
72409;BME280;60402;48.082;11.628;2023-04-07T09:59:20;95144.72;;;12.01;54.22
72409;BME280;60402;48.082;11.628;2023-04-07T10:02:06;95160.97;;;12.41;51.02
72409;BME280;60402;48.082;11.628;2023-04-07T10:04:52;95148.66;;;11.82;51.76
72409;BME280;60402;48.082;11.628;2023-04-07T10:07:38;95150.28;;;11.70;52.34
72409;BME280;60402;48.082;11.628;2023-04-07T10:10:24;95139.16;;;11.75;52.04
72409;BME280;60402;48.082;11.628;2023-04-07T10:13:11;95146.00;;;11.43;53.88
72409;BME280;60402;48.082;11.628;2023-04-07T10:15:58;95146.22;;;11.93;53.50
72409;BME280;60402;48.082;11.628;2023-04-07T10:18:44;95159.03;;;12.28;52.56
72409;BME280;60402;48.082;11.628;2023-04-07T10:21:34;95150.75;;;11.34;53.47
72409;BME280;60402;48.082;11.628;2023-04-07T10:27:30;95135.84;;;10.86;54.82
72409;BME280;60402;48.082;11.628;2023-04-07T10:30:28;95126.28;;;11.05;56.11
72409;BME280;60402;48.082;11.628;2023-04-07T10:33:14;95127.25;;;11.24;54.99
72409;BME280;60402;48.082;11.628;2023-04-07T10:36:04;95136.41;;;11.63;56.66
72409;BME280;60402;48.082;11.628;2023-04-07T10:41:51;95109.34;;;10.32;56.83
72409;BME280;60402;48.082;11.628;2023-04-07T10:47:23;95110.56;;;10.44;58.10
72409;BME280;60402;48.082;11.628;2023-04-07T10:55:56;95131.53;;;11.63;57.55
72409;BME280;60402;48.082;11.628;2023-04-07T10:58:42;95132.94;;;11.46;55.73
72409;BME280;60402;48.082;11.628;2023-04-07T11:01:27;95116.00;;;11.33;55.04
72409;BME280;60402;48.082;11.628;2023-04-07T11:04:13;95108.81;;;10.85;56.19
72409;BME280;60402;48.082;11.628;2023-04-07T11:06:59;95127.16;;;11.71;55.04
72409;BME280;60402;48.082;11.628;2023-04-07T11:09:45;95117.84;;;10.92;55.39
72409;BME280;60402;48.082;11.628;2023-04-07T11:12:31;95130.34;;;10.31;56.80
72409;BME280;60402;48.082;11.628;2023-04-07T11:15:20;95131.28;;;9.86;58.33
72409;BME280;60402;48.082;11.628;2023-04-07T11:18:11;95093.75;;;10.28;57.28
72409;BME280;60402;48.082;11.628;2023-04-07T11:20:58;95100.19;;;10.41;57.72
72409;BME280;60402;48.082;11.628;2023-04-07T11:23:45;95109.88;;;10.65;56.22
72409;BME280;60402;48.082;11.628;2023-04-07T11:26:37;95122.09;;;11.10;56.27
72409;BME280;60402;48.082;11.628;2023-04-07T11:29:33;95105.22;;;11.19;54.35
72409;BME280;60402;48.082;11.628;2023-04-07T11:32:22;95094.13;;;11.46;54.92
72409;BME280;60402;48.082;11.628;2023-04-07T11:35:14;95101.56;;;11.75;54.26
72409;BME280;60402;48.082;11.628;2023-04-07T11:38:02;95114.75;;;11.91;52.60
72409;BME280;60402;48.082;11.628;2023-04-07T11:40:48;95097.63;;;11.50;53.75
72409;BME280;60402;48.082;11.628;2023-04-07T11:43:34;95118.34;;;11.47;54.15
72409;BME280;60402;48.082;11.628;2023-04-07T11:46:20;95110.81;;;11.32;53.39
72409;BME280;60402;48.082;11.628;2023-04-07T11:49:09;95101.59;;;11.53;54.25
72409;BME280;60402;48.082;11.628;2023-04-07T11:52:05;95109.47;;;11.58;53.68
72409;BME280;60402;48.082;11.628;2023-04-07T11:54:51;95092.16;;;11.56;52.46
72409;BME280;60402;48.082;11.628;2023-04-07T11:57:37;95110.66;;;11.70;53.23
72409;BME280;60402;48.082;11.628;2023-04-07T12:00:23;95081.78;;;10.96;55.62
72409;BME280;60402;48.082;11.628;2023-04-07T12:03:10;95105.19;;;10.97;56.38
72409;BME280;60402;48.082;11.628;2023-04-07T12:05:59;95110.28;;;10.77;56.04
72409;BME280;60402;48.082;11.628;2023-04-07T12:08:45;95073.69;;;10.73;56.70
72409;BME280;60402;48.082;11.628;2023-04-07T12:11:32;95100.34;;;10.72;55.14
72409;BME280;60402;48.082;11.628;2023-04-07T12:14:18;95106.50;;;11.40;55.17
72409;BME280;60402;48.082;11.628;2023-04-07T12:17:04;95089.53;;;11.84;54.09
72409;BME280;60402;48.082;11.628;2023-04-07T12:19:50;95090.50;;;11.90;53.29
72409;BME280;60402;48.082;11.628;2023-04-07T12:22:36;95100.94;;;12.64;50.75
72409;BME280;60402;48.082;11.628;2023-04-07T12:25:22;95094.97;;;12.62;50.91
72409;BME280;60402;48.082;11.628;2023-04-07T12:28:07;95108.19;;;12.65;51.26
72409;BME280;60402;48.082;11.628;2023-04-07T12:30:54;95088.31;;;12.16;51.49
72409;BME280;60402;48.082;11.628;2023-04-07T12:33:39;95096.78;;;11.85;52.67
72409;BME280;60402;48.082;11.628;2023-04-07T12:36:25;95087.09;;;11.95;51.42
72409;BME280;60402;48.082;11.628;2023-04-07T12:39:15;95104.75;;;12.30;51.24
72409;BME280;60402;48.082;11.628;2023-04-07T12:42:01;95100.03;;;12.36;50.65
72409;BME280;60402;48.082;11.628;2023-04-07T12:44:46;95083.59;;;12.53;51.26
72409;BME280;60402;48.082;11.628;2023-04-07T12:47:32;95066.19;;;12.33;50.43
72409;BME280;60402;48.082;11.628;2023-04-07T12:50:18;95074.94;;;12.57;51.22
72409;BME280;60402;48.082;11.628;2023-04-07T12:53:04;95088.81;;;12.64;50.59
72409;BME280;60402;48.082;11.628;2023-04-07T12:55:49;95107.44;;;12.83;50.92
72409;BME280;60402;48.082;11.628;2023-04-07T12:58:35;95104.19;;;12.44;50.97
72409;BME280;60402;48.082;11.628;2023-04-07T13:01:21;95107.56;;;11.99;51.72
72409;BME280;60402;48.082;11.628;2023-04-07T13:04:07;95095.78;;;11.35;53.10
72409;BME280;60402;48.082;11.628;2023-04-07T13:06:53;95087.53;;;11.71;52.83
72409;BME280;60402;48.082;11.628;2023-04-07T13:09:39;95106.25;;;11.69;53.41
72409;BME280;60402;48.082;11.628;2023-04-07T13:12:28;95107.69;;;11.73;54.55
72409;BME280;60402;48.082;11.628;2023-04-07T13:15:14;95083.31;;;11.32;54.55
72409;BME280;60402;48.082;11.628;2023-04-07T13:17:59;95059.13;;;11.31;54.05
72409;BME280;60402;48.082;11.628;2023-04-07T13:20:45;95111.44;;;11.48;55.38
72409;BME280;60402;48.082;11.628;2023-04-07T13:23:31;95097.91;;;11.43;54.84
72409;BME280;60402;48.082;11.628;2023-04-07T13:26:16;95109.66;;;11.64;53.92
72409;BME280;60402;48.082;11.628;2023-04-07T13:29:02;95106.91;;;11.51;54.85
72409;BME280;60402;48.082;11.628;2023-04-07T13:31:48;95084.91;;;11.55;54.24
72409;BME280;60402;48.082;11.628;2023-04-07T13:34:34;95099.97;;;11.52;56.17
72409;BME280;60402;48.082;11.628;2023-04-07T13:37:20;95096.72;;;11.54;56.68
72409;BME280;60402;48.082;11.628;2023-04-07T13:40:06;95094.03;;;11.15;56.31
72409;BME280;60402;48.082;11.628;2023-04-07T13:42:52;95087.75;;;10.98;56.86
72409;BME280;60402;48.082;11.628;2023-04-07T13:45:37;95099.19;;;10.95;58.71
72409;BME280;60402;48.082;11.628;2023-04-07T13:48:23;95086.53;;;10.87;57.85
72409;BME280;60402;48.082;11.628;2023-04-07T13:51:09;95094.47;;;10.92;58.78
72409;BME280;60402;48.082;11.628;2023-04-07T13:53:55;95070.94;;;11.17;57.98
72409;BME280;60402;48.082;11.628;2023-04-07T13:56:41;95071.78;;;11.05;57.94
72409;BME280;60402;48.082;11.628;2023-04-07T13:59:27;95095.06;;;11.09;57.95
72409;BME280;60402;48.082;11.628;2023-04-07T14:02:13;95096.81;;;11.28;57.66
72409;BME280;60402;48.082;11.628;2023-04-07T14:04:59;95097.19;;;11.17;58.44
72409;BME280;60402;48.082;11.628;2023-04-07T14:07:45;95102.63;;;11.24;57.52
72409;BME280;60402;48.082;11.628;2023-04-07T14:10:31;95055.13;;;10.85;58.52
72409;BME280;60402;48.082;11.628;2023-04-07T14:13:18;95085.34;;;11.10;58.52
72409;BME280;60402;48.082;11.628;2023-04-07T14:16:04;95075.31;;;10.96;58.65
72409;BME280;60402;48.082;11.628;2023-04-07T14:18:50;95090.88;;;10.79;59.89
72409;BME280;60402;48.082;11.628;2023-04-07T14:21:36;95094.94;;;10.78;60.11
72409;BME280;60402;48.082;11.628;2023-04-07T14:24:21;95088.13;;;11.22;58.56
72409;BME280;60402;48.082;11.628;2023-04-07T14:27:07;95085.97;;;11.26;57.12
72409;BME280;60402;48.082;11.628;2023-04-07T14:29:53;95097.91;;;10.96;57.63
72409;BME280;60402;48.082;11.628;2023-04-07T14:32:40;95082.97;;;10.61;58.41
72409;BME280;60402;48.082;11.628;2023-04-07T14:35:26;95093.69;;;10.79;58.34
72409;BME280;60402;48.082;11.628;2023-04-07T14:38:11;95094.97;;;10.52;59.33
72409;BME280;60402;48.082;11.628;2023-04-07T14:40:57;95101.59;;;10.71;59.90
72409;BME280;60402;48.082;11.628;2023-04-07T14:43:43;95105.88;;;11.23;58.09
72409;BME280;60402;48.082;11.628;2023-04-07T14:46:29;95093.88;;;10.97;58.29
72409;BME280;60402;48.082;11.628;2023-04-07T14:49:14;95110.50;;;11.30;57.45
72409;BME280;60402;48.082;11.628;2023-04-07T14:52:00;95105.59;;;11.08;56.96
72409;BME280;60402;48.082;11.628;2023-04-07T14:54:46;95088.38;;;11.15;57.63
72409;BME280;60402;48.082;11.628;2023-04-07T14:57:31;95091.16;;;11.28;56.90